sensor_id;sensor_type;location;lat;lon;timestamp;temperature;humidity
72338;DHT22;60294;64.134;-21.862;2022-08-01T00:01:56;10.40;74.90
72338;DHT22;60294;64.134;-21.862;2022-08-01T00:04:21;10.40;74.70
72338;DHT22;60294;64.134;-21.862;2022-08-01T00:06:47;10.40;75.20
72338;DHT22;60294;64.134;-21.862;2022-08-01T00:09:13;10.40;75.60
72338;DHT22;60294;64.134;-21.862;2022-08-01T00:11:39;10.40;76.00
72338;DHT22;60294;64.134;-21.862;2022-08-01T00:14:05;10.30;76.20
72338;DHT22;60294;64.134;-21.862;2022-08-01T00:16:30;10.30;76.70
72338;DHT22;60294;64.134;-21.862;2022-08-01T00:18:56;10.30;76.60
72338;DHT22;60294;64.134;-21.862;2022-08-01T00:21:22;10.30;76.80
72338;DHT22;60294;64.134;-21.862;2022-08-01T00:23:48;10.30;76.00
72338;DHT22;60294;64.134;-21.862;2022-08-01T00:26:14;10.30;76.30
72338;DHT22;60294;64.134;-21.862;2022-08-01T00:28:41;10.30;76.50
72338;DHT22;60294;64.134;-21.862;2022-08-01T00:31:07;10.30;76.40
72338;DHT22;60294;64.134;-21.862;2022-08-01T00:33:33;10.30;76.40
72338;DHT22;60294;64.134;-21.862;2022-08-01T00:35:58;10.30;76.60
72338;DHT22;60294;64.134;-21.862;2022-08-01T00:38:24;10.30;76.90
72338;DHT22;60294;64.134;-21.862;2022-08-01T00:40:50;10.40;76.90
72338;DHT22;60294;64.134;-21.862;2022-08-01T00:43:16;10.40;77.20
72338;DHT22;60294;64.134;-21.862;2022-08-01T00:45:42;10.40;77.30
72338;DHT22;60294;64.134;-21.862;2022-08-01T00:48:08;10.50;77.50
72338;DHT22;60294;64.134;-21.862;2022-08-01T00:50:34;10.50;77.60
72338;DHT22;60294;64.134;-21.862;2022-08-01T00:53:01;10.50;77.30
72338;DHT22;60294;64.134;-21.862;2022-08-01T00:55:28;10.60;77.70
72338;DHT22;60294;64.134;-21.862;2022-08-01T00:57:54;10.60;77.70
72338;DHT22;60294;64.134;-21.862;2022-08-01T01:00:21;10.60;77.50
72338;DHT22;60294;64.134;-21.862;2022-08-01T01:02:47;10.60;77.10
72338;DHT22;60294;64.134;-21.862;2022-08-01T01:05:13;10.60;76.30
72338;DHT22;60294;64.134;-21.862;2022-08-01T01:10:25;10.70;76.60
72338;DHT22;60294;64.134;-21.862;2022-08-01T01:15:49;10.70;77.40
72338;DHT22;60294;64.134;-21.862;2022-08-01T01:18:22;10.70;76.30
72338;DHT22;60294;64.134;-21.862;2022-08-01T01:21:03;10.80;76.80
72338;DHT22;60294;64.134;-21.862;2022-08-01T01:29:30;10.70;77.10
72338;DHT22;60294;64.134;-21.862;2022-08-01T01:32:20;10.70;77.30
72338;DHT22;60294;64.134;-21.862;2022-08-01T01:34:50;10.60;79.20
72338;DHT22;60294;64.134;-21.862;2022-08-01T01:37:19;10.20;81.00
72338;DHT22;60294;64.134;-21.862;2022-08-01T01:39:49;10.10;84.00
72338;DHT22;60294;64.134;-21.862;2022-08-01T01:42:17;9.90;84.20
72338;DHT22;60294;64.134;-21.862;2022-08-01T01:44:45;9.80;82.70
72338;DHT22;60294;64.134;-21.862;2022-08-01T01:47:13;9.70;83.70
72338;DHT22;60294;64.134;-21.862;2022-08-01T01:49:40;9.60;83.80
72338;DHT22;60294;64.134;-21.862;2022-08-01T01:52:07;9.70;84.10
72338;DHT22;60294;64.134;-21.862;2022-08-01T01:54:39;9.70;84.40
72338;DHT22;60294;64.134;-21.862;2022-08-01T01:57:07;9.70;84.60
72338;DHT22;60294;64.134;-21.862;2022-08-01T01:59:35;9.70;84.50
72338;DHT22;60294;64.134;-21.862;2022-08-01T02:02:04;9.80;81.60
72338;DHT22;60294;64.134;-21.862;2022-08-01T02:04:31;9.80;81.90
72338;DHT22;60294;64.134;-21.862;2022-08-01T02:06:59;9.80;83.10
72338;DHT22;60294;64.134;-21.862;2022-08-01T02:09:27;9.80;82.40
72338;DHT22;60294;64.134;-21.862;2022-08-01T02:11:54;9.80;82.70
72338;DHT22;60294;64.134;-21.862;2022-08-01T02:14:22;9.80;83.20
72338;DHT22;60294;64.134;-21.862;2022-08-01T02:16:49;9.80;82.50
72338;DHT22;60294;64.134;-21.862;2022-08-01T02:19:17;9.90;83.30
72338;DHT22;60294;64.134;-21.862;2022-08-01T02:24:32;9.90;80.10
72338;DHT22;60294;64.134;-21.862;2022-08-01T02:27:05;9.90;78.40
72338;DHT22;60294;64.134;-21.862;2022-08-01T02:29:38;9.90;78.10
72338;DHT22;60294;64.134;-21.862;2022-08-01T02:32:06;9.90;76.50
72338;DHT22;60294;64.134;-21.862;2022-08-01T02:34:35;9.90;77.40
72338;DHT22;60294;64.134;-21.862;2022-08-01T02:37:03;9.90;77.00
72338;DHT22;60294;64.134;-21.862;2022-08-01T02:39:30;9.90;77.30
72338;DHT22;60294;64.134;-21.862;2022-08-01T02:42:00;9.80;75.70
72338;DHT22;60294;64.134;-21.862;2022-08-01T02:44:36;9.90;75.70
72338;DHT22;60294;64.134;-21.862;2022-08-01T02:47:03;9.90;74.20
72338;DHT22;60294;64.134;-21.862;2022-08-01T02:49:36;9.80;74.10
72338;DHT22;60294;64.134;-21.862;2022-08-01T02:52:06;9.80;74.40
72338;DHT22;60294;64.134;-21.862;2022-08-01T02:54:33;9.80;75.00
72338;DHT22;60294;64.134;-21.862;2022-08-01T02:57:01;9.70;74.70
72338;DHT22;60294;64.134;-21.862;2022-08-01T02:59:29;9.70;75.10
72338;DHT22;60294;64.134;-21.862;2022-08-01T03:01:57;9.70;74.60
72338;DHT22;60294;64.134;-21.862;2022-08-01T03:04:25;9.60;74.50
72338;DHT22;60294;64.134;-21.862;2022-08-01T03:06:54;9.60;74.70
72338;DHT22;60294;64.134;-21.862;2022-08-01T03:09:20;9.60;75.20
72338;DHT22;60294;64.134;-21.862;2022-08-01T03:11:48;9.50;74.90
72338;DHT22;60294;64.134;-21.862;2022-08-01T03:14:15;9.50;75.50
72338;DHT22;60294;64.134;-21.862;2022-08-01T03:16:44;9.40;74.50
72338;DHT22;60294;64.134;-21.862;2022-08-01T03:19:12;9.40;74.10
72338;DHT22;60294;64.134;-21.862;2022-08-01T03:21:40;9.40;74.20
72338;DHT22;60294;64.134;-21.862;2022-08-01T03:24:10;9.40;74.10
72338;DHT22;60294;64.134;-21.862;2022-08-01T03:26:38;9.40;74.00
72338;DHT22;60294;64.134;-21.862;2022-08-01T03:29:12;9.30;73.90
72338;DHT22;60294;64.134;-21.862;2022-08-01T03:31:40;9.30;74.10
72338;DHT22;60294;64.134;-21.862;2022-08-01T03:34:09;9.30;73.90
72338;DHT22;60294;64.134;-21.862;2022-08-01T03:36:42;9.20;74.10
72338;DHT22;60294;64.134;-21.862;2022-08-01T03:39:10;9.20;73.10
72338;DHT22;60294;64.134;-21.862;2022-08-01T03:41:43;9.20;72.30
72338;DHT22;60294;64.134;-21.862;2022-08-01T03:44:14;9.20;71.50
72338;DHT22;60294;64.134;-21.862;2022-08-01T03:46:47;9.20;69.90
72338;DHT22;60294;64.134;-21.862;2022-08-01T03:49:25;9.20;70.40
72338;DHT22;60294;64.134;-21.862;2022-08-01T03:51:52;9.20;70.50
72338;DHT22;60294;64.134;-21.862;2022-08-01T03:54:24;9.20;70.70
72338;DHT22;60294;64.134;-21.862;2022-08-01T03:56:51;9.30;71.90
72338;DHT22;60294;64.134;-21.862;2022-08-01T03:59:18;9.30;70.70
72338;DHT22;60294;64.134;-21.862;2022-08-01T04:01:45;9.40;69.70
72338;DHT22;60294;64.134;-21.862;2022-08-01T04:04:12;9.40;70.90
72338;DHT22;60294;64.134;-21.862;2022-08-01T04:06:41;9.50;70.30
72338;DHT22;60294;64.134;-21.862;2022-08-01T04:09:10;9.50;70.00
72338;DHT22;60294;64.134;-21.862;2022-08-01T04:11:37;9.40;70.60
72338;DHT22;60294;64.134;-21.862;2022-08-01T04:14:03;9.50;70.70
72338;DHT22;60294;64.134;-21.862;2022-08-01T04:16:29;9.50;70.90
72338;DHT22;60294;64.134;-21.862;2022-08-01T04:18:55;9.50;70.50
72338;DHT22;60294;64.134;-21.862;2022-08-01T04:21:24;9.50;70.10
72338;DHT22;60294;64.134;-21.862;2022-08-01T04:23:54;9.50;69.40
72338;DHT22;60294;64.134;-21.862;2022-08-01T04:26:22;9.60;69.40
72338;DHT22;60294;64.134;-21.862;2022-08-01T04:28:50;9.60;69.90
72338;DHT22;60294;64.134;-21.862;2022-08-01T04:31:17;9.60;69.60
72338;DHT22;60294;64.134;-21.862;2022-08-01T04:33:47;9.60;70.10
72338;DHT22;60294;64.134;-21.862;2022-08-01T04:36:17;9.60;68.80
72338;DHT22;60294;64.134;-21.862;2022-08-01T04:38:46;9.60;69.00
72338;DHT22;60294;64.134;-21.862;2022-08-01T04:41:14;9.60;68.90
72338;DHT22;60294;64.134;-21.862;2022-08-01T04:43:41;9.60;69.50
72338;DHT22;60294;64.134;-21.862;2022-08-01T04:46:08;9.50;69.50
72338;DHT22;60294;64.134;-21.862;2022-08-01T04:48:38;9.50;70.00
72338;DHT22;60294;64.134;-21.862;2022-08-01T04:51:12;9.50;69.90
72338;DHT22;60294;64.134;-21.862;2022-08-01T04:53:38;9.50;70.10
72338;DHT22;60294;64.134;-21.862;2022-08-01T04:56:04;9.40;70.00
72338;DHT22;60294;64.134;-21.862;2022-08-01T04:58:31;9.40;69.70
72338;DHT22;60294;64.134;-21.862;2022-08-01T05:00:57;9.40;69.80
72338;DHT22;60294;64.134;-21.862;2022-08-01T05:03:22;9.40;70.00
72338;DHT22;60294;64.134;-21.862;2022-08-01T05:05:48;9.40;70.30
72338;DHT22;60294;64.134;-21.862;2022-08-01T05:08:14;9.30;70.50
72338;DHT22;60294;64.134;-21.862;2022-08-01T05:10:42;9.40;71.10
72338;DHT22;60294;64.134;-21.862;2022-08-01T05:13:08;9.40;71.00
72338;DHT22;60294;64.134;-21.862;2022-08-01T05:15:35;9.40;71.40
72338;DHT22;60294;64.134;-21.862;2022-08-01T05:18:04;9.40;71.60
72338;DHT22;60294;64.134;-21.862;2022-08-01T05:20:30;9.50;71.50
72338;DHT22;60294;64.134;-21.862;2022-08-01T05:22:55;9.50;72.20
72338;DHT22;60294;64.134;-21.862;2022-08-01T05:25:22;9.60;72.30
72338;DHT22;60294;64.134;-21.862;2022-08-01T05:27:49;9.60;72.10
72338;DHT22;60294;64.134;-21.862;2022-08-01T05:30:15;9.60;72.10
72338;DHT22;60294;64.134;-21.862;2022-08-01T05:32:41;9.60;72.30
72338;DHT22;60294;64.134;-21.862;2022-08-01T05:35:08;9.70;72.80
72338;DHT22;60294;64.134;-21.862;2022-08-01T05:37:34;9.70;72.80
72338;DHT22;60294;64.134;-21.862;2022-08-01T05:40:00;9.60;73.40
72338;DHT22;60294;64.134;-21.862;2022-08-01T05:42:26;9.60;74.10
72338;DHT22;60294;64.134;-21.862;2022-08-01T05:44:52;9.60;73.70
72338;DHT22;60294;64.134;-21.862;2022-08-01T05:47:18;9.60;74.10
72338;DHT22;60294;64.134;-21.862;2022-08-01T05:49:45;9.60;74.70
72338;DHT22;60294;64.134;-21.862;2022-08-01T05:52:11;9.60;74.70
72338;DHT22;60294;64.134;-21.862;2022-08-01T05:54:37;9.50;75.00
72338;DHT22;60294;64.134;-21.862;2022-08-01T05:57:03;9.50;75.60
72338;DHT22;60294;64.134;-21.862;2022-08-01T05:59:29;9.50;75.70
72338;DHT22;60294;64.134;-21.862;2022-08-01T06:01:56;9.50;76.10
72338;DHT22;60294;64.134;-21.862;2022-08-01T06:04:22;9.40;77.10
72338;DHT22;60294;64.134;-21.862;2022-08-01T06:06:48;9.50;76.20
72338;DHT22;60294;64.134;-21.862;2022-08-01T06:09:13;9.50;76.30
72338;DHT22;60294;64.134;-21.862;2022-08-01T06:11:39;9.50;75.80
72338;DHT22;60294;64.134;-21.862;2022-08-01T06:14:07;9.60;75.20
72338;DHT22;60294;64.134;-21.862;2022-08-01T06:16:33;9.60;73.50
72338;DHT22;60294;64.134;-21.862;2022-08-01T06:18:58;9.60;72.50
72338;DHT22;60294;64.134;-21.862;2022-08-01T06:21:24;9.60;73.40
72338;DHT22;60294;64.134;-21.862;2022-08-01T06:23:50;9.60;71.60
72338;DHT22;60294;64.134;-21.862;2022-08-01T06:26:20;9.60;69.60
72338;DHT22;60294;64.134;-21.862;2022-08-01T06:28:46;9.60;69.20
72338;DHT22;60294;64.134;-21.862;2022-08-01T06:31:12;9.60;69.40
72338;DHT22;60294;64.134;-21.862;2022-08-01T06:33:39;9.60;69.30
72338;DHT22;60294;64.134;-21.862;2022-08-01T06:36:05;9.70;68.40
72338;DHT22;60294;64.134;-21.862;2022-08-01T06:38:31;9.70;68.40
72338;DHT22;60294;64.134;-21.862;2022-08-01T06:40:56;9.70;69.00
72338;DHT22;60294;64.134;-21.862;2022-08-01T06:43:22;9.70;69.10
72338;DHT22;60294;64.134;-21.862;2022-08-01T06:45:48;9.70;69.20
72338;DHT22;60294;64.134;-21.862;2022-08-01T06:48:14;9.90;67.90
72338;DHT22;60294;64.134;-21.862;2022-08-01T06:50:40;9.90;68.10
72338;DHT22;60294;64.134;-21.862;2022-08-01T06:53:08;10.00;68.00
72338;DHT22;60294;64.134;-21.862;2022-08-01T06:55:34;10.00;68.10
72338;DHT22;60294;64.134;-21.862;2022-08-01T06:57:59;9.90;67.70
72338;DHT22;60294;64.134;-21.862;2022-08-01T07:00:26;10.00;67.90
72338;DHT22;60294;64.134;-21.862;2022-08-01T07:02:56;10.00;67.70
72338;DHT22;60294;64.134;-21.862;2022-08-01T07:05:24;10.10;67.50
72338;DHT22;60294;64.134;-21.862;2022-08-01T07:07:50;10.10;67.90
72338;DHT22;60294;64.134;-21.862;2022-08-01T07:10:16;10.10;67.40
72338;DHT22;60294;64.134;-21.862;2022-08-01T07:12:42;10.10;67.50
72338;DHT22;60294;64.134;-21.862;2022-08-01T07:15:09;10.20;67.60
72338;DHT22;60294;64.134;-21.862;2022-08-01T07:17:40;10.30;66.90
72338;DHT22;60294;64.134;-21.862;2022-08-01T07:20:08;10.40;66.90
72338;DHT22;60294;64.134;-21.862;2022-08-01T07:22:34;10.40;66.90
72338;DHT22;60294;64.134;-21.862;2022-08-01T07:25:00;10.50;67.30
72338;DHT22;60294;64.134;-21.862;2022-08-01T07:27:26;10.40;67.10
72338;DHT22;60294;64.134;-21.862;2022-08-01T07:29:52;10.50;67.20
72338;DHT22;60294;64.134;-21.862;2022-08-01T07:32:18;10.40;66.50
72338;DHT22;60294;64.134;-21.862;2022-08-01T07:34:43;10.40;67.10
72338;DHT22;60294;64.134;-21.862;2022-08-01T07:37:09;10.40;66.90
72338;DHT22;60294;64.134;-21.862;2022-08-01T07:39:35;10.30;66.90
72338;DHT22;60294;64.134;-21.862;2022-08-01T07:42:01;10.40;67.40
72338;DHT22;60294;64.134;-21.862;2022-08-01T07:44:26;10.40;66.20
72338;DHT22;60294;64.134;-21.862;2022-08-01T07:46:52;10.50;66.40
72338;DHT22;60294;64.134;-21.862;2022-08-01T07:49:18;10.60;67.20
72338;DHT22;60294;64.134;-21.862;2022-08-01T07:51:44;10.60;67.50
72338;DHT22;60294;64.134;-21.862;2022-08-01T07:54:10;10.50;66.20
72338;DHT22;60294;64.134;-21.862;2022-08-01T07:56:35;10.60;67.00
72338;DHT22;60294;64.134;-21.862;2022-08-01T07:59:01;10.50;66.80
72338;DHT22;60294;64.134;-21.862;2022-08-01T08:01:27;10.50;66.30
72338;DHT22;60294;64.134;-21.862;2022-08-01T08:03:53;10.50;66.00
72338;DHT22;60294;64.134;-21.862;2022-08-01T08:06:19;10.40;65.70
72338;DHT22;60294;64.134;-21.862;2022-08-01T08:08:45;10.40;66.00
72338;DHT22;60294;64.134;-21.862;2022-08-01T08:11:11;10.40;66.60
72338;DHT22;60294;64.134;-21.862;2022-08-01T08:13:36;10.50;66.80
72338;DHT22;60294;64.134;-21.862;2022-08-01T08:16:02;10.40;66.90
72338;DHT22;60294;64.134;-21.862;2022-08-01T08:18:28;10.40;66.70
72338;DHT22;60294;64.134;-21.862;2022-08-01T08:20:54;10.40;66.60
72338;DHT22;60294;64.134;-21.862;2022-08-01T08:23:20;10.40;66.20
72338;DHT22;60294;64.134;-21.862;2022-08-01T08:26:04;10.40;66.80
72338;DHT22;60294;64.134;-21.862;2022-08-01T08:28:29;10.50;67.20
72338;DHT22;60294;64.134;-21.862;2022-08-01T08:30:55;10.60;67.50
72338;DHT22;60294;64.134;-21.862;2022-08-01T08:33:21;10.60;67.10
72338;DHT22;60294;64.134;-21.862;2022-08-01T08:35:47;10.70;67.30
72338;DHT22;60294;64.134;-21.862;2022-08-01T08:38:13;10.60;69.10
72338;DHT22;60294;64.134;-21.862;2022-08-01T08:40:39;10.60;69.20
72338;DHT22;60294;64.134;-21.862;2022-08-01T08:43:05;10.70;69.70
72338;DHT22;60294;64.134;-21.862;2022-08-01T08:45:32;10.60;69.50
72338;DHT22;60294;64.134;-21.862;2022-08-01T08:47:58;10.80;69.80
72338;DHT22;60294;64.134;-21.862;2022-08-01T08:50:28;10.80;68.90
72338;DHT22;60294;64.134;-21.862;2022-08-01T08:52:55;10.60;69.70
72338;DHT22;60294;64.134;-21.862;2022-08-01T08:55:22;10.40;70.70
72338;DHT22;60294;64.134;-21.862;2022-08-01T08:57:48;10.50;70.20
72338;DHT22;60294;64.134;-21.862;2022-08-01T09:00:15;10.50;70.00
72338;DHT22;60294;64.134;-21.862;2022-08-01T09:02:45;10.60;69.00
72338;DHT22;60294;64.134;-21.862;2022-08-01T09:05:13;10.70;69.30
72338;DHT22;60294;64.134;-21.862;2022-08-01T09:07:39;10.80;69.20
72338;DHT22;60294;64.134;-21.862;2022-08-01T09:10:06;10.70;68.40
72338;DHT22;60294;64.134;-21.862;2022-08-01T09:12:32;10.80;68.30
72338;DHT22;60294;64.134;-21.862;2022-08-01T09:14:58;10.90;67.40
72338;DHT22;60294;64.134;-21.862;2022-08-01T09:17:24;11.00;68.20
72338;DHT22;60294;64.134;-21.862;2022-08-01T09:19:53;11.20;68.20
72338;DHT22;60294;64.134;-21.862;2022-08-01T09:22:21;11.20;67.40
72338;DHT22;60294;64.134;-21.862;2022-08-01T09:27:28;11.30;65.70
72338;DHT22;60294;64.134;-21.862;2022-08-01T09:30:05;11.40;66.80
72338;DHT22;60294;64.134;-21.862;2022-08-01T09:32:32;11.40;67.00
72338;DHT22;60294;64.134;-21.862;2022-08-01T09:35:30;11.40;66.00
72338;DHT22;60294;64.134;-21.862;2022-08-01T09:38:16;11.40;65.50
72338;DHT22;60294;64.134;-21.862;2022-08-01T09:43:16;11.60;67.80
72338;DHT22;60294;64.134;-21.862;2022-08-01T09:45:42;11.50;67.10
72338;DHT22;60294;64.134;-21.862;2022-08-01T09:48:09;11.80;66.60
72338;DHT22;60294;64.134;-21.862;2022-08-01T09:50:42;11.70;66.60
72338;DHT22;60294;64.134;-21.862;2022-08-01T09:53:09;12.00;66.80
72338;DHT22;60294;64.134;-21.862;2022-08-01T09:55:38;12.20;64.80
72338;DHT22;60294;64.134;-21.862;2022-08-01T09:58:04;12.30;63.90
72338;DHT22;60294;64.134;-21.862;2022-08-01T10:00:31;12.50;62.50
72338;DHT22;60294;64.134;-21.862;2022-08-01T10:02:58;12.20;62.60
72338;DHT22;60294;64.134;-21.862;2022-08-01T10:05:35;12.60;62.40
72338;DHT22;60294;64.134;-21.862;2022-08-01T10:08:04;12.90;62.70
72338;DHT22;60294;64.134;-21.862;2022-08-01T10:10:31;12.80;63.10
72338;DHT22;60294;64.134;-21.862;2022-08-01T10:12:58;12.60;63.50
72338;DHT22;60294;64.134;-21.862;2022-08-01T10:15:25;12.60;62.00
72338;DHT22;60294;64.134;-21.862;2022-08-01T10:17:59;12.70;62.40
72338;DHT22;60294;64.134;-21.862;2022-08-01T10:20:31;12.60;60.80
72338;DHT22;60294;64.134;-21.862;2022-08-01T10:23:02;12.90;60.20
72338;DHT22;60294;64.134;-21.862;2022-08-01T10:25:32;13.00;55.30
72338;DHT22;60294;64.134;-21.862;2022-08-01T10:27:59;13.10;55.20
72338;DHT22;60294;64.134;-21.862;2022-08-01T10:30:27;12.90;55.10
72338;DHT22;60294;64.134;-21.862;2022-08-01T10:32:54;12.90;54.20
72338;DHT22;60294;64.134;-21.862;2022-08-01T10:35:21;12.90;54.50
72338;DHT22;60294;64.134;-21.862;2022-08-01T10:37:47;13.10;54.80
72338;DHT22;60294;64.134;-21.862;2022-08-01T10:40:16;13.10;54.40
72338;DHT22;60294;64.134;-21.862;2022-08-01T10:42:43;13.10;53.80
72338;DHT22;60294;64.134;-21.862;2022-08-01T10:45:14;13.10;53.10
72338;DHT22;60294;64.134;-21.862;2022-08-01T10:47:53;13.30;53.90
72338;DHT22;60294;64.134;-21.862;2022-08-01T10:51:00;13.20;54.60
72338;DHT22;60294;64.134;-21.862;2022-08-01T10:53:27;13.10;59.70
72338;DHT22;60294;64.134;-21.862;2022-08-01T10:58:34;12.60;63.30
72338;DHT22;60294;64.134;-21.862;2022-08-01T11:01:26;12.40;63.70
72338;DHT22;60294;64.134;-21.862;2022-08-01T11:06:38;12.40;65.00
72338;DHT22;60294;64.134;-21.862;2022-08-01T11:09:23;12.00;66.00
72338;DHT22;60294;64.134;-21.862;2022-08-01T11:12:10;12.00;66.00
72338;DHT22;60294;64.134;-21.862;2022-08-01T11:17:38;11.90;66.10
72338;DHT22;60294;64.134;-21.862;2022-08-01T11:20:13;12.10;65.60
72338;DHT22;60294;64.134;-21.862;2022-08-01T11:30:48;12.70;62.60
72338;DHT22;60294;64.134;-21.862;2022-08-01T11:33:16;12.80;62.70
72338;DHT22;60294;64.134;-21.862;2022-08-01T11:38:37;13.10;62.30
72338;DHT22;60294;64.134;-21.862;2022-08-01T11:43:55;12.70;61.90
72338;DHT22;60294;64.134;-21.862;2022-08-01T11:54:56;12.50;61.00
72338;DHT22;60294;64.134;-21.862;2022-08-01T11:57:24;12.60;60.40
72338;DHT22;60294;64.134;-21.862;2022-08-01T11:59:55;12.60;61.00
72338;DHT22;60294;64.134;-21.862;2022-08-01T12:02:31;12.80;60.50
72338;DHT22;60294;64.134;-21.862;2022-08-01T12:05:06;13.00;60.20
72338;DHT22;60294;64.134;-21.862;2022-08-01T12:07:33;12.70;60.00
72338;DHT22;60294;64.134;-21.862;2022-08-01T12:10:14;12.80;60.30
72338;DHT22;60294;64.134;-21.862;2022-08-01T12:12:53;12.80;60.20
72338;DHT22;60294;64.134;-21.862;2022-08-01T12:15:21;13.00;60.40
72338;DHT22;60294;64.134;-21.862;2022-08-01T12:17:50;13.10;61.30
72338;DHT22;60294;64.134;-21.862;2022-08-01T12:20:21;13.10;61.60
72338;DHT22;60294;64.134;-21.862;2022-08-01T12:22:47;13.20;60.80
72338;DHT22;60294;64.134;-21.862;2022-08-01T12:25:17;13.10;60.50
72338;DHT22;60294;64.134;-21.862;2022-08-01T12:27:45;12.80;62.20
72338;DHT22;60294;64.134;-21.862;2022-08-01T12:30:14;12.90;61.70
72338;DHT22;60294;64.134;-21.862;2022-08-01T12:32:41;13.10;60.20
72338;DHT22;60294;64.134;-21.862;2022-08-01T12:35:08;13.20;60.20
72338;DHT22;60294;64.134;-21.862;2022-08-01T12:37:42;13.30;60.60
72338;DHT22;60294;64.134;-21.862;2022-08-01T12:40:20;13.30;61.20
72338;DHT22;60294;64.134;-21.862;2022-08-01T12:42:48;13.20;60.00
72338;DHT22;60294;64.134;-21.862;2022-08-01T12:45:17;13.10;59.80
72338;DHT22;60294;64.134;-21.862;2022-08-01T12:47:43;13.10;60.00
72338;DHT22;60294;64.134;-21.862;2022-08-01T12:50:18;12.90;61.80
72338;DHT22;60294;64.134;-21.862;2022-08-01T12:52:46;12.70;63.40
72338;DHT22;60294;64.134;-21.862;2022-08-01T12:55:15;12.60;63.00
72338;DHT22;60294;64.134;-21.862;2022-08-01T12:57:45;12.70;62.20
72338;DHT22;60294;64.134;-21.862;2022-08-01T13:02:47;12.60;63.60
72338;DHT22;60294;64.134;-21.862;2022-08-01T13:05:15;12.50;63.10
72338;DHT22;60294;64.134;-21.862;2022-08-01T13:07:49;12.60;62.90
72338;DHT22;60294;64.134;-21.862;2022-08-01T13:10:28;12.40;62.30
72338;DHT22;60294;64.134;-21.862;2022-08-01T13:12:57;12.50;62.90
72338;DHT22;60294;64.134;-21.862;2022-08-01T13:15:26;12.40;62.20
72338;DHT22;60294;64.134;-21.862;2022-08-01T13:17:53;12.50;62.80
72338;DHT22;60294;64.134;-21.862;2022-08-01T13:20:30;12.50;63.50
72338;DHT22;60294;64.134;-21.862;2022-08-01T13:23:10;12.60;62.50
72338;DHT22;60294;64.134;-21.862;2022-08-01T13:25:53;12.70;61.90
72338;DHT22;60294;64.134;-21.862;2022-08-01T13:28:26;12.70;61.20
72338;DHT22;60294;64.134;-21.862;2022-08-01T13:33:21;13.00;62.50
72338;DHT22;60294;64.134;-21.862;2022-08-01T13:35:53;13.40;60.30
72338;DHT22;60294;64.134;-21.862;2022-08-01T13:38:19;14.10;58.20
72338;DHT22;60294;64.134;-21.862;2022-08-01T13:40:45;14.20;56.60
72338;DHT22;60294;64.134;-21.862;2022-08-01T13:43:11;13.90;58.50
72338;DHT22;60294;64.134;-21.862;2022-08-01T13:45:37;14.10;57.70
72338;DHT22;60294;64.134;-21.862;2022-08-01T13:48:04;13.80;58.70
72338;DHT22;60294;64.134;-21.862;2022-08-01T13:50:30;13.80;58.10
72338;DHT22;60294;64.134;-21.862;2022-08-01T13:52:56;14.10;57.80
72338;DHT22;60294;64.134;-21.862;2022-08-01T13:55:21;15.30;54.10
72338;DHT22;60294;64.134;-21.862;2022-08-01T13:57:47;15.90;51.60
72338;DHT22;60294;64.134;-21.862;2022-08-01T14:00:13;16.40;51.20
72338;DHT22;60294;64.134;-21.862;2022-08-01T14:02:40;15.40;53.30
72338;DHT22;60294;64.134;-21.862;2022-08-01T14:05:06;14.80;55.40
72338;DHT22;60294;64.134;-21.862;2022-08-01T14:07:32;14.50;54.90
72338;DHT22;60294;64.134;-21.862;2022-08-01T14:09:58;15.20;53.50
72338;DHT22;60294;64.134;-21.862;2022-08-01T14:12:23;14.60;55.00
72338;DHT22;60294;64.134;-21.862;2022-08-01T14:14:49;14.10;56.50
72338;DHT22;60294;64.134;-21.862;2022-08-01T14:17:15;13.90;57.00
72338;DHT22;60294;64.134;-21.862;2022-08-01T14:19:41;14.50;56.40
72338;DHT22;60294;64.134;-21.862;2022-08-01T14:22:06;15.80;53.40
72338;DHT22;60294;64.134;-21.862;2022-08-01T14:24:32;15.80;52.70
72338;DHT22;60294;64.134;-21.862;2022-08-01T14:26:58;16.60;51.60
72338;DHT22;60294;64.134;-21.862;2022-08-01T14:29:24;16.20;50.90
72338;DHT22;60294;64.134;-21.862;2022-08-01T14:31:49;14.70;54.20
72338;DHT22;60294;64.134;-21.862;2022-08-01T14:34:15;14.20;56.90
72338;DHT22;60294;64.134;-21.862;2022-08-01T14:36:42;15.10;53.00
72338;DHT22;60294;64.134;-21.862;2022-08-01T14:39:08;14.90;52.20
72338;DHT22;60294;64.134;-21.862;2022-08-01T14:41:34;15.30;52.50
72338;DHT22;60294;64.134;-21.862;2022-08-01T14:44:00;14.90;54.30
72338;DHT22;60294;64.134;-21.862;2022-08-01T14:46:26;15.10;52.00
72338;DHT22;60294;64.134;-21.862;2022-08-01T14:48:52;14.80;53.10
72338;DHT22;60294;64.134;-21.862;2022-08-01T14:51:18;14.60;54.00
72338;DHT22;60294;64.134;-21.862;2022-08-01T14:53:44;14.40;55.20
72338;DHT22;60294;64.134;-21.862;2022-08-01T14:56:09;14.60;54.50
72338;DHT22;60294;64.134;-21.862;2022-08-01T14:58:36;15.80;50.30
72338;DHT22;60294;64.134;-21.862;2022-08-01T15:01:02;16.40;49.80
72338;DHT22;60294;64.134;-21.862;2022-08-01T15:03:30;16.30;50.30
72338;DHT22;60294;64.134;-21.862;2022-08-01T15:05:57;15.90;50.30
72338;DHT22;60294;64.134;-21.862;2022-08-01T15:08:23;17.10;47.30
72338;DHT22;60294;64.134;-21.862;2022-08-01T15:10:49;16.80;47.90
72338;DHT22;60294;64.134;-21.862;2022-08-01T15:13:15;17.10;47.70
72338;DHT22;60294;64.134;-21.862;2022-08-01T15:15:40;17.60;46.40
72338;DHT22;60294;64.134;-21.862;2022-08-01T15:18:06;17.00;46.10
72338;DHT22;60294;64.134;-21.862;2022-08-01T15:20:32;16.70;47.40
72338;DHT22;60294;64.134;-21.862;2022-08-01T15:22:58;16.80;46.80
72338;DHT22;60294;64.134;-21.862;2022-08-01T15:25:24;17.20;46.00
72338;DHT22;60294;64.134;-21.862;2022-08-01T15:27:50;17.30;45.90
72338;DHT22;60294;64.134;-21.862;2022-08-01T15:30:16;16.70;47.60
72338;DHT22;60294;64.134;-21.862;2022-08-01T15:32:42;17.50;45.30
72338;DHT22;60294;64.134;-21.862;2022-08-01T15:35:09;18.00;44.80
72338;DHT22;60294;64.134;-21.862;2022-08-01T15:37:35;18.20;43.90
72338;DHT22;60294;64.134;-21.862;2022-08-01T15:40:01;18.90;42.30
72338;DHT22;60294;64.134;-21.862;2022-08-01T15:42:27;18.30;42.80
72338;DHT22;60294;64.134;-21.862;2022-08-01T15:44:54;16.50;47.30
72338;DHT22;60294;64.134;-21.862;2022-08-01T15:47:19;15.10;51.30
72338;DHT22;60294;64.134;-21.862;2022-08-01T15:49:45;14.90;52.20
72338;DHT22;60294;64.134;-21.862;2022-08-01T15:52:11;14.60;52.00
72338;DHT22;60294;64.134;-21.862;2022-08-01T15:54:37;14.20;54.10
72338;DHT22;60294;64.134;-21.862;2022-08-01T15:57:05;13.90;54.30
72338;DHT22;60294;64.134;-21.862;2022-08-01T15:59:32;13.50;54.40
72338;DHT22;60294;64.134;-21.862;2022-08-01T16:01:58;13.50;55.00
72338;DHT22;60294;64.134;-21.862;2022-08-01T16:04:23;13.30;55.70
72338;DHT22;60294;64.134;-21.862;2022-08-01T16:06:49;12.70;58.20
72338;DHT22;60294;64.134;-21.862;2022-08-01T16:09:15;13.00;57.50